Portada
METAR-TAF:

METAR-TAF

Aeroports :

Hickory, Carolina del Nord, Estats Units d'Amèrica

latitud: 35-44-32N, longitud: 081-22-56W, altitud: 362 m

Observació

L'informe es va fer fa 24 minuts, a les 16:53 UTC
Vent 4 kt del Est
Temperatura 22°C
Humitat 78%
Pressió 1022 hPa
Visibilitat: 16.1 km
Cel cobert a una alçada de 2200 ft

METAR: KHKY 251653Z 10004KT 10SM OVC022 22/18 A3019 RMK AO2 SLP202 T02220183

Hora: 13:17 (17:17 UTC)

Pronòstic

L'informe es va fer fa 47 minuts, a les 16:30 UTC
Pronòstic vàlid del 25 a les 17 UTC al 26 a les 12 UTC
Vent 5 kt del Est/Nord-Est
Visibilitat: 10 km
Cel cobert a una alçada de 1700 ft
Probabilitat 30%
l' 26 a les 04 UTC al 26 a les 05 UTC
Visibilitat: 3.2 km
Cel cobert a una alçada de 800 ft
xàfecs de pluja, boirina
A partir de les 26 a les 0500 UTC
Vent 3 kt del Est/Nord-Est
Visibilitat: 8.0 km
Cel cobert a una alçada de 700 ft
boirina

TAF: KHKY 251630Z 2517/2612 07005KT P6SM OVC017 PROB30 2604/2605 2SM -SHRA BR OVC008 FM260500 06003KT 5SM BR OVC007

Observacions i pronòstics meteorològics de més de 4000 aeroports (METAR i TAF).

Les estacions disponibles són els punts grocs i vermells al mapa.

Posi el ratolí al punt desitjat per veure el nom de l'estació.

Feu clic per veure les observacions i els pronòstics meteorològics.

Per canviar el mapa: feu clic els botons verds amb una creu de color negre per apropar; al botó verd amb un guió per allunyar la imatge; o en les fletxes verdes per a mapes adjacents.


METAR-TAF: